Gulfport Biloxi International Airport Gulfport US
ICAO: KGPT
IATA: GPT
Category: Large
Scheduled Services: Yes

Elevation: 28 ft
TransAlt. 18000 ft.

Airport Communications:
APP/DEP:124.6
ATIS:119.45
CTAF:123.7
GND:120.4
ANG OPS:37.78
GREENWOOD RDO:109
TWR:123.7
UNICOM:122.95

KGPT Zoom In..

If you have problems with the map follow the link
https://www.worldairports.se/pages/airport.php?
ICAO=KGPT

Runways:

(A) RW 14 length 9002 ft width 150 ft
ILS 110.90 / hdg 133

(B) RW 18 length 4935 ft width 150 ft
---- / hdg 178

(C) RW 32 length 9002 ft width 150 ft
ILS 108.30 / hdg 313

(D) RW 36 length 4935 ft width 150 ft
---- / hdg 358

Location; KGPT
Day. 19 / Time. 01.07 Zulu
* Altimeter: 30.12
* Temperature: 19° c. 66.2°f.
* Wind from: 000° Speed 00 kn.
Dewpoint: 18° c.
Visibility: 5 Statute Miles.
Clouds: Broken 3100 ft.
Clouds: Broken 4200 ft.
Conditions: Mist.

KGPT 190107Z 00000KT 5SM BR BKN031 BKN042 19/18 A3012 RMK AO2 LTG DSNT N T01940178


Wind - Calm.

 
 
jpsmedia worldairports.se 2020   terms of use